sensor_id;sensor_type;location;lat;lon;timestamp;pressure;altitude;pressure_sealevel;temperature;humidity
32492;BME280;20605;49.742;18.802;2023-01-16T00:01:26;96904.80;;;3.25;100.00
32492;BME280;20605;49.742;18.802;2023-01-16T00:03:52;96902.66;;;3.29;100.00
32492;BME280;20605;49.742;18.802;2023-01-16T00:06:17;96897.86;;;3.30;100.00
32492;BME280;20605;49.742;18.802;2023-01-16T00:08:43;96899.52;;;3.33;100.00
32492;BME280;20605;49.742;18.802;2023-01-16T00:11:09;96904.63;;;3.35;100.00
32492;BME280;20605;49.742;18.802;2023-01-16T00:13:37;96908.17;;;3.38;100.00
32492;BME280;20605;49.742;18.802;2023-01-16T00:16:03;96914.30;;;3.42;100.00
32492;BME280;20605;49.742;18.802;2023-01-16T00:18:29;96914.93;;;3.44;100.00
32492;BME280;20605;49.742;18.802;2023-01-16T00:20:55;96914.49;;;3.49;100.00
32492;BME280;20605;49.742;18.802;2023-01-16T00:23:20;96918.92;;;3.51;100.00
32492;BME280;20605;49.742;18.802;2023-01-16T00:25:46;96919.63;;;3.50;100.00
32492;BME280;20605;49.742;18.802;2023-01-16T00:28:12;96913.73;;;3.53;100.00
32492;BME280;20605;49.742;18.802;2023-01-16T00:30:38;96917.62;;;3.56;100.00
32492;BME280;20605;49.742;18.802;2023-01-16T00:33:04;96919.48;;;3.58;100.00
32492;BME280;20605;49.742;18.802;2023-01-16T00:35:33;96917.86;;;3.62;100.00
32492;BME280;20605;49.742;18.802;2023-01-16T00:37:58;96916.45;;;3.64;100.00
32492;BME280;20605;49.742;18.802;2023-01-16T00:40:24;96906.38;;;3.62;100.00
32492;BME280;20605;49.742;18.802;2023-01-16T00:42:50;96906.27;;;3.58;100.00
32492;BME280;20605;49.742;18.802;2023-01-16T00:45:16;96894.13;;;3.55;100.00
32492;BME280;20605;49.742;18.802;2023-01-16T00:47:42;96884.85;;;3.56;100.00
32492;BME280;20605;49.742;18.802;2023-01-16T00:50:08;96879.09;;;3.61;100.00
32492;BME280;20605;49.742;18.802;2023-01-16T00:52:33;96876.07;;;3.67;100.00
32492;BME280;20605;49.742;18.802;2023-01-16T00:54:59;96880.29;;;3.70;100.00
32492;BME280;20605;49.742;18.802;2023-01-16T00:57:25;96877.20;;;3.71;100.00
32492;BME280;20605;49.742;18.802;2023-01-16T00:59:51;96873.41;;;3.71;100.00
32492;BME280;20605;49.742;18.802;2023-01-16T01:02:17;96869.82;;;3.70;100.00
32492;BME280;20605;49.742;18.802;2023-01-16T01:04:42;96864.91;;;3.67;100.00
32492;BME280;20605;49.742;18.802;2023-01-16T01:07:08;96879.71;;;3.65;100.00
32492;BME280;20605;49.742;18.802;2023-01-16T01:09:34;96881.42;;;3.65;100.00
32492;BME280;20605;49.742;18.802;2023-01-16T01:11:59;96876.02;;;3.60;100.00
32492;BME280;20605;49.742;18.802;2023-01-16T01:14:26;96873.27;;;3.51;100.00
32492;BME280;20605;49.742;18.802;2023-01-16T01:16:52;96878.77;;;3.42;100.00
32492;BME280;20605;49.742;18.802;2023-01-16T01:19:18;96883.96;;;3.30;100.00
32492;BME280;20605;49.742;18.802;2023-01-16T01:21:44;96880.57;;;3.17;100.00
32492;BME280;20605;49.742;18.802;2023-01-16T01:24:10;96889.65;;;3.08;100.00
32492;BME280;20605;49.742;18.802;2023-01-16T01:26:35;96896.28;;;3.01;100.00
32492;BME280;20605;49.742;18.802;2023-01-16T01:29:01;96894.32;;;2.95;100.00
32492;BME280;20605;49.742;18.802;2023-01-16T01:31:27;96889.55;;;2.93;100.00
32492;BME280;20605;49.742;18.802;2023-01-16T01:33:53;96884.45;;;2.90;100.00
32492;BME280;20605;49.742;18.802;2023-01-16T01:36:18;96879.55;;;2.86;100.00
32492;BME280;20605;49.742;18.802;2023-01-16T01:38:44;96883.69;;;2.84;100.00
32492;BME280;20605;49.742;18.802;2023-01-16T01:41:15;96879.29;;;2.81;100.00
32492;BME280;20605;49.742;18.802;2023-01-16T01:43:48;96870.30;;;2.74;100.00
32492;BME280;20605;49.742;18.802;2023-01-16T01:48:47;96859.19;;;2.53;100.00
32492;BME280;20605;49.742;18.802;2023-01-16T01:51:16;96855.90;;;2.44;100.00
32492;BME280;20605;49.742;18.802;2023-01-16T01:53:47;96851.72;;;2.37;100.00
32492;BME280;20605;49.742;18.802;2023-01-16T01:56:15;96851.61;;;2.33;100.00
32492;BME280;20605;49.742;18.802;2023-01-16T01:58:43;96848.90;;;2.31;100.00
32492;BME280;20605;49.742;18.802;2023-01-16T02:01:11;96853.02;;;2.29;100.00
32492;BME280;20605;49.742;18.802;2023-01-16T02:03:39;96854.18;;;2.32;100.00
32492;BME280;20605;49.742;18.802;2023-01-16T02:06:07;96859.46;;;2.35;100.00
32492;BME280;20605;49.742;18.802;2023-01-16T02:08:34;96854.12;;;2.37;100.00
32492;BME280;20605;49.742;18.802;2023-01-16T02:11:09;96848.30;;;2.37;100.00
32492;BME280;20605;49.742;18.802;2023-01-16T02:14:00;96842.84;;;2.35;100.00
32492;BME280;20605;49.742;18.802;2023-01-16T02:16:27;96846.00;;;2.29;100.00
32492;BME280;20605;49.742;18.802;2023-01-16T02:19:22;96849.23;;;2.19;100.00
32492;BME280;20605;49.742;18.802;2023-01-16T02:24:31;96860.44;;;2.01;100.00
32492;BME280;20605;49.742;18.802;2023-01-16T02:39:42;96848.05;;;1.65;100.00
32492;BME280;20605;49.742;18.802;2023-01-16T02:42:13;96848.08;;;1.63;100.00
32492;BME280;20605;49.742;18.802;2023-01-16T02:44:53;96843.47;;;1.62;100.00
32492;BME280;20605;49.742;18.802;2023-01-16T02:47:39;96845.17;;;1.63;100.00
32492;BME280;20605;49.742;18.802;2023-01-16T02:52:53;96835.80;;;1.60;100.00
32492;BME280;20605;49.742;18.802;2023-01-16T02:57:48;96823.94;;;1.64;100.00
32492;BME280;20605;49.742;18.802;2023-01-16T03:00:15;96818.96;;;1.65;100.00
32492;BME280;20605;49.742;18.802;2023-01-16T03:02:44;96808.51;;;1.67;100.00
32492;BME280;20605;49.742;18.802;2023-01-16T03:05:11;96803.17;;;1.68;100.00
32492;BME280;20605;49.742;18.802;2023-01-16T03:18:13;96787.05;;;1.84;100.00
32492;BME280;20605;49.742;18.802;2023-01-16T03:23:15;96792.94;;;1.92;100.00
32492;BME280;20605;49.742;18.802;2023-01-16T03:25:48;96797.02;;;1.94;100.00
32492;BME280;20605;49.742;18.802;2023-01-16T03:30:46;96803.89;;;2.05;100.00
32492;BME280;20605;49.742;18.802;2023-01-16T03:33:22;96802.08;;;2.12;100.00
32492;BME280;20605;49.742;18.802;2023-01-16T03:38:17;96786.30;;;2.13;100.00
32492;BME280;20605;49.742;18.802;2023-01-16T03:40:46;96777.73;;;2.14;100.00
32492;BME280;20605;49.742;18.802;2023-01-16T03:43:14;96771.20;;;2.15;100.00
32492;BME280;20605;49.742;18.802;2023-01-16T03:45:52;96770.18;;;2.15;100.00
32492;BME280;20605;49.742;18.802;2023-01-16T03:48:26;96768.98;;;2.15;100.00
32492;BME280;20605;49.742;18.802;2023-01-16T03:50:59;96774.46;;;2.14;100.00
32492;BME280;20605;49.742;18.802;2023-01-16T03:53:29;96775.31;;;2.15;100.00
32492;BME280;20605;49.742;18.802;2023-01-16T03:56:13;96775.81;;;2.16;100.00
32492;BME280;20605;49.742;18.802;2023-01-16T03:58:41;96775.64;;;2.16;100.00
32492;BME280;20605;49.742;18.802;2023-01-16T04:01:23;96775.95;;;2.18;100.00
32492;BME280;20605;49.742;18.802;2023-01-16T04:03:56;96774.58;;;2.18;100.00
32492;BME280;20605;49.742;18.802;2023-01-16T04:06:25;96767.54;;;2.20;100.00
32492;BME280;20605;49.742;18.802;2023-01-16T04:08:55;96765.95;;;2.22;100.00
32492;BME280;20605;49.742;18.802;2023-01-16T04:11:23;96752.70;;;2.26;100.00
32492;BME280;20605;49.742;18.802;2023-01-16T04:13:50;96749.75;;;2.28;100.00
32492;BME280;20605;49.742;18.802;2023-01-16T04:16:16;96742.50;;;2.33;100.00
32492;BME280;20605;49.742;18.802;2023-01-16T04:18:43;96735.08;;;2.36;100.00
32492;BME280;20605;49.742;18.802;2023-01-16T04:21:10;96733.62;;;2.41;100.00
32492;BME280;20605;49.742;18.802;2023-01-16T04:23:36;96724.30;;;2.44;100.00
32492;BME280;20605;49.742;18.802;2023-01-16T04:26:02;96718.76;;;2.49;100.00
32492;BME280;20605;49.742;18.802;2023-01-16T04:28:28;96714.27;;;2.50;100.00
32492;BME280;20605;49.742;18.802;2023-01-16T04:30:54;96711.17;;;2.51;100.00
32492;BME280;20605;49.742;18.802;2023-01-16T04:33:20;96706.88;;;2.51;100.00
32492;BME280;20605;49.742;18.802;2023-01-16T04:35:45;96704.01;;;2.49;100.00
32492;BME280;20605;49.742;18.802;2023-01-16T04:38:11;96703.87;;;2.48;100.00
32492;BME280;20605;49.742;18.802;2023-01-16T04:40:37;96698.89;;;2.48;100.00
32492;BME280;20605;49.742;18.802;2023-01-16T04:43:03;96695.83;;;2.47;100.00
32492;BME280;20605;49.742;18.802;2023-01-16T04:45:29;96692.14;;;2.43;100.00
32492;BME280;20605;49.742;18.802;2023-01-16T04:47:55;96693.87;;;2.41;100.00
32492;BME280;20605;49.742;18.802;2023-01-16T04:50:20;96687.21;;;2.40;100.00
32492;BME280;20605;49.742;18.802;2023-01-16T04:52:46;96690.16;;;2.38;100.00
32492;BME280;20605;49.742;18.802;2023-01-16T04:55:12;96687.51;;;2.33;100.00
32492;BME280;20605;49.742;18.802;2023-01-16T04:57:38;96685.50;;;2.30;100.00
32492;BME280;20605;49.742;18.802;2023-01-16T05:00:05;96688.44;;;2.28;100.00
32492;BME280;20605;49.742;18.802;2023-01-16T05:02:31;96676.81;;;2.27;100.00
32492;BME280;20605;49.742;18.802;2023-01-16T05:04:57;96674.19;;;2.31;100.00
32492;BME280;20605;49.742;18.802;2023-01-16T05:07:22;96677.25;;;2.32;100.00
32492;BME280;20605;49.742;18.802;2023-01-16T05:09:50;96676.20;;;2.34;100.00
32492;BME280;20605;49.742;18.802;2023-01-16T05:12:16;96676.50;;;2.36;100.00
32492;BME280;20605;49.742;18.802;2023-01-16T05:14:41;96676.46;;;2.37;100.00
32492;BME280;20605;49.742;18.802;2023-01-16T05:17:07;96675.08;;;2.39;100.00
32492;BME280;20605;49.742;18.802;2023-01-16T05:19:32;96673.58;;;2.36;100.00
32492;BME280;20605;49.742;18.802;2023-01-16T05:21:58;96671.44;;;2.32;100.00
32492;BME280;20605;49.742;18.802;2023-01-16T05:24:24;96670.43;;;2.30;100.00
32492;BME280;20605;49.742;18.802;2023-01-16T05:26:49;96663.29;;;2.27;100.00
32492;BME280;20605;49.742;18.802;2023-01-16T05:29:15;96665.36;;;2.25;100.00
32492;BME280;20605;49.742;18.802;2023-01-16T05:31:41;96663.53;;;2.22;100.00
32492;BME280;20605;49.742;18.802;2023-01-16T05:34:07;96664.73;;;2.22;100.00
32492;BME280;20605;49.742;18.802;2023-01-16T05:36:33;96658.54;;;2.24;100.00
32492;BME280;20605;49.742;18.802;2023-01-16T05:38:59;96662.97;;;2.26;100.00
32492;BME280;20605;49.742;18.802;2023-01-16T05:41:24;96658.99;;;2.28;100.00
32492;BME280;20605;49.742;18.802;2023-01-16T05:43:50;96656.92;;;2.29;100.00
32492;BME280;20605;49.742;18.802;2023-01-16T05:46:16;96652.48;;;2.28;100.00
32492;BME280;20605;49.742;18.802;2023-01-16T05:48:42;96643.04;;;2.29;100.00
32492;BME280;20605;49.742;18.802;2023-01-16T05:51:08;96645.75;;;2.31;100.00
32492;BME280;20605;49.742;18.802;2023-01-16T05:53:36;96635.83;;;2.31;100.00
32492;BME280;20605;49.742;18.802;2023-01-16T05:56:06;96628.95;;;2.32;100.00
32492;BME280;20605;49.742;18.802;2023-01-16T05:58:39;96627.41;;;2.32;100.00
32492;BME280;20605;49.742;18.802;2023-01-16T06:01:10;96625.65;;;2.34;100.00
32492;BME280;20605;49.742;18.802;2023-01-16T06:03:35;96626.48;;;2.35;100.00
32492;BME280;20605;49.742;18.802;2023-01-16T06:06:01;96625.29;;;2.35;100.00
32492;BME280;20605;49.742;18.802;2023-01-16T06:08:27;96618.96;;;2.35;100.00
32492;BME280;20605;49.742;18.802;2023-01-16T06:10:53;96617.23;;;2.35;100.00
32492;BME280;20605;49.742;18.802;2023-01-16T06:13:19;96610.89;;;2.36;100.00
32492;BME280;20605;49.742;18.802;2023-01-16T06:15:51;96614.30;;;2.37;100.00
32492;BME280;20605;49.742;18.802;2023-01-16T06:18:17;96612.41;;;2.38;100.00
32492;BME280;20605;49.742;18.802;2023-01-16T06:20:49;96604.70;;;2.37;100.00
32492;BME280;20605;49.742;18.802;2023-01-16T06:23:15;96597.97;;;2.39;100.00
32492;BME280;20605;49.742;18.802;2023-01-16T06:25:40;96593.64;;;2.42;100.00
32492;BME280;20605;49.742;18.802;2023-01-16T06:28:07;96586.91;;;2.44;100.00
32492;BME280;20605;49.742;18.802;2023-01-16T06:30:33;96585.94;;;2.42;100.00
32492;BME280;20605;49.742;18.802;2023-01-16T06:32:59;96589.27;;;2.38;100.00
32492;BME280;20605;49.742;18.802;2023-01-16T06:35:25;96583.48;;;2.36;100.00
32492;BME280;20605;49.742;18.802;2023-01-16T06:37:51;96584.00;;;2.36;100.00
32492;BME280;20605;49.742;18.802;2023-01-16T06:40:16;96584.30;;;2.38;100.00
32492;BME280;20605;49.742;18.802;2023-01-16T06:42:43;96584.14;;;2.37;100.00
32492;BME280;20605;49.742;18.802;2023-01-16T06:45:09;96584.15;;;2.37;100.00
32492;BME280;20605;49.742;18.802;2023-01-16T06:47:35;96583.63;;;2.37;100.00
32492;BME280;20605;49.742;18.802;2023-01-16T06:50:01;96587.84;;;2.40;100.00
32492;BME280;20605;49.742;18.802;2023-01-16T06:52:26;96587.95;;;2.44;100.00
32492;BME280;20605;49.742;18.802;2023-01-16T06:54:52;96587.92;;;2.45;100.00
32492;BME280;20605;49.742;18.802;2023-01-16T06:57:18;96583.12;;;2.46;100.00
32492;BME280;20605;49.742;18.802;2023-01-16T06:59:43;96583.58;;;2.49;100.00
32492;BME280;20605;49.742;18.802;2023-01-16T07:02:09;96580.23;;;2.54;100.00
32492;BME280;20605;49.742;18.802;2023-01-16T07:04:35;96578.95;;;2.58;100.00
32492;BME280;20605;49.742;18.802;2023-01-16T07:07:01;96578.33;;;2.61;100.00
32492;BME280;20605;49.742;18.802;2023-01-16T07:09:26;96577.58;;;2.65;100.00
32492;BME280;20605;49.742;18.802;2023-01-16T07:11:55;96570.86;;;2.66;100.00
32492;BME280;20605;49.742;18.802;2023-01-16T07:14:21;96570.46;;;2.69;100.00
32492;BME280;20605;49.742;18.802;2023-01-16T07:17:05;96569.73;;;2.71;100.00
32492;BME280;20605;49.742;18.802;2023-01-16T07:19:50;96573.23;;;2.76;100.00
32492;BME280;20605;49.742;18.802;2023-01-16T07:22:35;96575.56;;;2.79;100.00
32492;BME280;20605;49.742;18.802;2023-01-16T07:25:05;96575.70;;;2.81;100.00
32492;BME280;20605;49.742;18.802;2023-01-16T07:27:31;96575.86;;;2.81;100.00
32492;BME280;20605;49.742;18.802;2023-01-16T07:29:57;96573.09;;;2.83;100.00
32492;BME280;20605;49.742;18.802;2023-01-16T07:32:24;96570.80;;;2.85;100.00
32492;BME280;20605;49.742;18.802;2023-01-16T07:34:49;96571.23;;;2.89;100.00
32492;BME280;20605;49.742;18.802;2023-01-16T07:37:15;96563.13;;;2.91;100.00
32492;BME280;20605;49.742;18.802;2023-01-16T07:39:41;96558.59;;;2.95;100.00
32492;BME280;20605;49.742;18.802;2023-01-16T07:42:07;96552.55;;;2.97;100.00
32492;BME280;20605;49.742;18.802;2023-01-16T07:44:33;96544.97;;;2.99;100.00
32492;BME280;20605;49.742;18.802;2023-01-16T07:46:59;96539.25;;;3.01;100.00
32492;BME280;20605;49.742;18.802;2023-01-16T07:49:25;96534.58;;;3.04;100.00
32492;BME280;20605;49.742;18.802;2023-01-16T07:51:52;96532.48;;;3.05;100.00
32492;BME280;20605;49.742;18.802;2023-01-16T07:54:17;96529.37;;;3.06;100.00
32492;BME280;20605;49.742;18.802;2023-01-16T07:56:43;96531.70;;;3.09;100.00
32492;BME280;20605;49.742;18.802;2023-01-16T07:59:08;96525.17;;;3.10;100.00
32492;BME280;20605;49.742;18.802;2023-01-16T08:01:34;96525.97;;;3.12;100.00
32492;BME280;20605;49.742;18.802;2023-01-16T08:04:00;96522.09;;;3.17;100.00
32492;BME280;20605;49.742;18.802;2023-01-16T08:06:26;96515.95;;;3.23;100.00
32492;BME280;20605;49.742;18.802;2023-01-16T08:08:52;96510.25;;;3.32;100.00
32492;BME280;20605;49.742;18.802;2023-01-16T08:11:17;96506.67;;;3.38;100.00
32492;BME280;20605;49.742;18.802;2023-01-16T08:14:02;96501.60;;;3.49;100.00
32492;BME280;20605;49.742;18.802;2023-01-16T08:16:29;96502.10;;;3.57;100.00
32492;BME280;20605;49.742;18.802;2023-01-16T08:18:55;96497.29;;;3.56;100.00
32492;BME280;20605;49.742;18.802;2023-01-16T08:21:21;96488.80;;;3.53;100.00
32492;BME280;20605;49.742;18.802;2023-01-16T08:23:47;96481.20;;;3.55;100.00
32492;BME280;20605;49.742;18.802;2023-01-16T08:26:14;96473.52;;;3.60;100.00
32492;BME280;20605;49.742;18.802;2023-01-16T08:28:40;96470.64;;;3.58;100.00
32492;BME280;20605;49.742;18.802;2023-01-16T08:31:07;96459.80;;;3.59;100.00
32492;BME280;20605;49.742;18.802;2023-01-16T08:33:34;96452.46;;;3.65;100.00
32492;BME280;20605;49.742;18.802;2023-01-16T08:36:02;96442.75;;;3.68;100.00
32492;BME280;20605;49.742;18.802;2023-01-16T08:38:28;96430.44;;;3.73;100.00
32492;BME280;20605;49.742;18.802;2023-01-16T08:40:54;96422.33;;;3.75;100.00
32492;BME280;20605;49.742;18.802;2023-01-16T08:43:20;96418.78;;;3.72;100.00
32492;BME280;20605;49.742;18.802;2023-01-16T08:46:08;96417.92;;;3.73;100.00
32492;BME280;20605;49.742;18.802;2023-01-16T08:48:59;96417.10;;;3.84;100.00
32492;BME280;20605;49.742;18.802;2023-01-16T08:51:44;96413.76;;;3.92;100.00
32492;BME280;20605;49.742;18.802;2023-01-16T08:54:10;96405.34;;;3.98;100.00
32492;BME280;20605;49.742;18.802;2023-01-16T08:56:36;96401.26;;;4.03;100.00
32492;BME280;20605;49.742;18.802;2023-01-16T08:59:09;96392.55;;;4.06;100.00
32492;BME280;20605;49.742;18.802;2023-01-16T09:01:36;96386.77;;;4.05;100.00
32492;BME280;20605;49.742;18.802;2023-01-16T09:04:02;96382.14;;;4.05;100.00
32492;BME280;20605;49.742;18.802;2023-01-16T09:06:28;96370.65;;;4.04;100.00
32492;BME280;20605;49.742;18.802;2023-01-16T09:08:54;96362.20;;;4.05;100.00
32492;BME280;20605;49.742;18.802;2023-01-16T09:11:19;96356.12;;;4.07;100.00
32492;BME280;20605;49.742;18.802;2023-01-16T09:14:04;96351.25;;;4.09;100.00
32492;BME280;20605;49.742;18.802;2023-01-16T09:16:29;96350.58;;;4.15;100.00
32492;BME280;20605;49.742;18.802;2023-01-16T09:18:55;96345.14;;;4.18;100.00
32492;BME280;20605;49.742;18.802;2023-01-16T09:21:21;96330.05;;;4.23;100.00
32492;BME280;20605;49.742;18.802;2023-01-16T09:23:50;96326.52;;;4.26;100.00
32492;BME280;20605;49.742;18.802;2023-01-16T09:26:16;96321.30;;;4.29;100.00
32492;BME280;20605;49.742;18.802;2023-01-16T09:28:41;96322.91;;;4.38;100.00
32492;BME280;20605;49.742;18.802;2023-01-16T09:31:08;96311.89;;;4.49;100.00
32492;BME280;20605;49.742;18.802;2023-01-16T09:33:33;96296.73;;;4.61;100.00
32492;BME280;20605;49.742;18.802;2023-01-16T09:35:59;96288.71;;;4.80;100.00
32492;BME280;20605;49.742;18.802;2023-01-16T09:38:30;96281.19;;;5.04;100.00
32492;BME280;20605;49.742;18.802;2023-01-16T09:40:57;96279.11;;;5.38;100.00
32492;BME280;20605;49.742;18.802;2023-01-16T09:43:39;96277.31;;;5.83;100.00
32492;BME280;20605;49.742;18.802;2023-01-16T09:46:11;96270.20;;;6.42;100.00
32492;BME280;20605;49.742;18.802;2023-01-16T09:51:28;96254.20;;;8.55;100.00
32492;BME280;20605;49.742;18.802;2023-01-16T09:54:00;96248.46;;;9.87;100.00
32492;BME280;20605;49.742;18.802;2023-01-16T09:56:47;96250.06;;;10.65;99.52
32492;BME280;20605;49.742;18.802;2023-01-16T10:02:20;96238.95;;;10.16;97.22
32492;BME280;20605;49.742;18.802;2023-01-16T10:12:34;96233.40;;;7.14;98.28
32492;BME280;20605;49.742;18.802;2023-01-16T10:20:34;96211.02;;;6.10;99.70
32492;BME280;20605;49.742;18.802;2023-01-16T10:28:27;96203.11;;;5.59;100.00
32492;BME280;20605;49.742;18.802;2023-01-16T10:33:39;96187.03;;;5.70;100.00
32492;BME280;20605;49.742;18.802;2023-01-16T10:36:06;96185.23;;;5.76;100.00
32492;BME280;20605;49.742;18.802;2023-01-16T10:41:15;96172.24;;;5.87;100.00
32492;BME280;20605;49.742;18.802;2023-01-16T10:44:00;96170.33;;;6.02;100.00
32492;BME280;20605;49.742;18.802;2023-01-16T10:46:46;96170.77;;;6.12;100.00
32492;BME280;20605;49.742;18.802;2023-01-16T10:49:31;96156.16;;;6.15;100.00
32492;BME280;20605;49.742;18.802;2023-01-16T10:51:58;96154.89;;;6.21;100.00
32492;BME280;20605;49.742;18.802;2023-01-16T10:54:27;96160.42;;;6.26;100.00
32492;BME280;20605;49.742;18.802;2023-01-16T10:56:53;96152.93;;;6.27;100.00
32492;BME280;20605;49.742;18.802;2023-01-16T10:59:18;96136.95;;;6.22;100.00
32492;BME280;20605;49.742;18.802;2023-01-16T11:01:45;96128.73;;;6.20;100.00
32492;BME280;20605;49.742;18.802;2023-01-16T11:04:12;96129.91;;;6.21;100.00
32492;BME280;20605;49.742;18.802;2023-01-16T11:06:43;96118.54;;;6.17;100.00
32492;BME280;20605;49.742;18.802;2023-01-16T11:09:16;96109.75;;;6.21;100.00
32492;BME280;20605;49.742;18.802;2023-01-16T11:11:43;96099.75;;;6.29;100.00
32492;BME280;20605;49.742;18.802;2023-01-16T11:20:03;96077.02;;;6.79;100.00
32492;BME280;20605;49.742;18.802;2023-01-16T11:22:29;96071.50;;;6.79;99.95
32492;BME280;20605;49.742;18.802;2023-01-16T11:24:58;96066.98;;;6.76;100.00
32492;BME280;20605;49.742;18.802;2023-01-16T11:27:26;96067.33;;;6.80;99.89
32492;BME280;20605;49.742;18.802;2023-01-16T11:29:53;96068.75;;;6.79;99.67
32492;BME280;20605;49.742;18.802;2023-01-16T11:32:20;96064.05;;;6.72;99.50
32492;BME280;20605;49.742;18.802;2023-01-16T11:34:52;96061.64;;;6.65;99.61
32492;BME280;20605;49.742;18.802;2023-01-16T11:37:18;96057.98;;;6.58;99.42
32492;BME280;20605;49.742;18.802;2023-01-16T11:39:49;96049.48;;;6.47;99.39
32492;BME280;20605;49.742;18.802;2023-01-16T11:42:21;96048.36;;;6.34;99.39
32492;BME280;20605;49.742;18.802;2023-01-16T11:45:24;96043.95;;;6.20;99.69
32492;BME280;20605;49.742;18.802;2023-01-16T11:48:09;96035.73;;;6.14;99.90
32492;BME280;20605;49.742;18.802;2023-01-16T11:50:51;96024.27;;;6.13;100.00
32492;BME280;20605;49.742;18.802;2023-01-16T11:53:17;96014.97;;;6.09;100.00
32492;BME280;20605;49.742;18.802;2023-01-16T11:56:30;96002.30;;;6.03;100.00
32492;BME280;20605;49.742;18.802;2023-01-16T11:58:35;95994.81;;;6.05;100.00
32492;BME280;20605;49.742;18.802;2023-01-16T12:03:37;95986.27;;;6.18;100.00
32492;BME280;20605;49.742;18.802;2023-01-16T12:13:25;95957.96;;;6.00;100.00
32492;BME280;20605;49.742;18.802;2023-01-16T12:16:20;95958.98;;;6.01;100.00
32492;BME280;20605;49.742;18.802;2023-01-16T12:21:29;95947.59;;;6.01;100.00
32492;BME280;20605;49.742;18.802;2023-01-16T12:23:59;95942.30;;;5.96;100.00
32492;BME280;20605;49.742;18.802;2023-01-16T12:26:40;95940.96;;;5.91;100.00
32492;BME280;20605;49.742;18.802;2023-01-16T12:29:20;95935.65;;;5.90;100.00
32492;BME280;20605;49.742;18.802;2023-01-16T12:39:34;95907.37;;;5.74;100.00
32492;BME280;20605;49.742;18.802;2023-01-16T12:47:41;95895.25;;;5.92;100.00
32492;BME280;20605;49.742;18.802;2023-01-16T12:50:14;95892.45;;;6.02;100.00
32492;BME280;20605;49.742;18.802;2023-01-16T13:00:39;95873.54;;;6.27;100.00
32492;BME280;20605;49.742;18.802;2023-01-16T13:03:23;95872.43;;;6.33;100.00
32492;BME280;20605;49.742;18.802;2023-01-16T13:05:49;95868.19;;;6.35;100.00
32492;BME280;20605;49.742;18.802;2023-01-16T13:08:20;95864.60;;;6.38;100.00
32492;BME280;20605;49.742;18.802;2023-01-16T13:10:48;95865.52;;;6.40;100.00
32492;BME280;20605;49.742;18.802;2023-01-16T13:13:42;95851.72;;;6.26;100.00
32492;BME280;20605;49.742;18.802;2023-01-16T13:16:25;95846.35;;;6.07;100.00
32492;BME280;20605;49.742;18.802;2023-01-16T13:18:54;95847.02;;;5.96;100.00
32492;BME280;20605;49.742;18.802;2023-01-16T13:21:25;95847.84;;;6.01;100.00
32492;BME280;20605;49.742;18.802;2023-01-16T13:23:56;95843.86;;;6.05;100.00
32492;BME280;20605;49.742;18.802;2023-01-16T13:26:24;95841.17;;;6.08;100.00
32492;BME280;20605;49.742;18.802;2023-01-16T13:31:43;95837.59;;;6.30;100.00
32492;BME280;20605;49.742;18.802;2023-01-16T13:34:13;95833.84;;;6.29;100.00
32492;BME280;20605;49.742;18.802;2023-01-16T13:42:06;95821.15;;;6.27;100.00
32492;BME280;20605;49.742;18.802;2023-01-16T13:44:34;95818.01;;;6.32;100.00
32492;BME280;20605;49.742;18.802;2023-01-16T13:47:23;95812.13;;;6.28;100.00
32492;BME280;20605;49.742;18.802;2023-01-16T13:50:05;95804.92;;;6.20;100.00
32492;BME280;20605;49.742;18.802;2023-01-16T13:52:34;95802.95;;;6.18;100.00
32492;BME280;20605;49.742;18.802;2023-01-16T13:55:02;95794.71;;;6.17;100.00
32492;BME280;20605;49.742;18.802;2023-01-16T13:57:32;95786.54;;;6.19;100.00
32492;BME280;20605;49.742;18.802;2023-01-16T13:59:59;95784.53;;;6.14;100.00
32492;BME280;20605;49.742;18.802;2023-01-16T14:10:42;95765.61;;;6.24;100.00
32492;BME280;20605;49.742;18.802;2023-01-16T14:13:23;95767.19;;;6.24;100.00
32492;BME280;20605;49.742;18.802;2023-01-16T14:16:23;95758.48;;;6.14;100.00
32492;BME280;20605;49.742;18.802;2023-01-16T14:19:02;95756.58;;;6.18;100.00
32492;BME280;20605;49.742;18.802;2023-01-16T14:24:04;95750.08;;;5.91;100.00
32492;BME280;20605;49.742;18.802;2023-01-16T14:26:38;95750.54;;;5.73;100.00
32492;BME280;20605;49.742;18.802;2023-01-16T14:32:02;95740.92;;;5.46;100.00
32492;BME280;20605;49.742;18.802;2023-01-16T14:34:34;95736.52;;;5.37;100.00
32492;BME280;20605;49.742;18.802;2023-01-16T14:37:10;95733.95;;;5.29;100.00
32492;BME280;20605;49.742;18.802;2023-01-16T14:39:38;95727.40;;;5.21;100.00
32492;BME280;20605;49.742;18.802;2023-01-16T14:42:14;95720.38;;;5.14;100.00
32492;BME280;20605;49.742;18.802;2023-01-16T14:47:59;95712.64;;;4.94;100.00
32492;BME280;20605;49.742;18.802;2023-01-16T14:51:14;95709.35;;;4.86;100.00
32492;BME280;20605;49.742;18.802;2023-01-16T14:56:42;95693.48;;;4.71;100.00
32492;BME280;20605;49.742;18.802;2023-01-16T14:59:20;95685.19;;;4.64;100.00
32492;BME280;20605;49.742;18.802;2023-01-16T15:01:49;95679.06;;;4.58;100.00
32492;BME280;20605;49.742;18.802;2023-01-16T15:04:41;95675.83;;;4.54;100.00
32492;BME280;20605;49.742;18.802;2023-01-16T15:07:14;95673.34;;;4.51;100.00
32492;BME280;20605;49.742;18.802;2023-01-16T15:09:40;95673.15;;;4.48;100.00
32492;BME280;20605;49.742;18.802;2023-01-16T15:12:10;95668.95;;;4.45;100.00
32492;BME280;20605;49.742;18.802;2023-01-16T15:14:36;95669.70;;;4.44;100.00
32492;BME280;20605;49.742;18.802;2023-01-16T15:22:41;95654.60;;;4.14;100.00
32492;BME280;20605;49.742;18.802;2023-01-16T15:26:10;95652.02;;;4.06;100.00
32492;BME280;20605;49.742;18.802;2023-01-16T15:30:47;95645.15;;;4.06;100.00